Time;durP1;ratioP1;P1;durP2;ratioP2;P2;SDS_P1;SDS_P2;PMS_P1;PMS_P2;Temp;Humidity;BMP_temperature;BMP_pressure;BME280_temperature;BME280_humidity;BME280_pressure;Samples;Min_cycle;Max_cycle;Signal;HPM_P1;HPM_P2
2023/01/26 00:02:02;;;;;;;18.50;11.13;;;5.70;99.90;;;;;;5071842;28;20470;-41
2023/01/26 00:04:28;;;;;;;18.77;10.88;;;5.70;99.90;;;;;;5071557;28;20025;-39
2023/01/26 00:06:54;;;;;;;20.90;12.05;;;5.90;99.90;;;;;;5071204;28;20479;-44
2023/01/26 00:09:19;;;;;;;17.80;11.10;;;6.10;99.90;;;;;;5071257;28;20027;-44
2023/01/26 00:11:45;;;;;;;20.20;11.57;;;6.30;99.90;;;;;;5071354;28;20135;-42
2023/01/26 00:14:10;;;;;;;19.00;11.60;;;6.50;99.90;;;;;;5071812;28;20449;-39
2023/01/26 00:16:36;;;;;;;16.65;10.68;;;6.50;99.90;;;;;;5071134;28;20463;-37
2023/01/26 00:19:02;;;;;;;21.48;11.73;;;6.40;99.90;;;;;;5071261;28;20023;-44
2023/01/26 00:21:28;;;;;;;20.63;11.07;;;6.40;99.90;;;;;;5072076;28;20103;-44
2023/01/26 00:23:53;;;;;;;18.85;10.63;;;6.30;99.90;;;;;;5071194;28;20040;-39
2023/01/26 00:26:22;;;;;;;18.17;10.73;;;6.30;99.90;;;;;;5071729;28;20032;-39
2023/01/26 00:28:48;;;;;;;19.13;11.48;;;6.20;99.90;;;;;;5072127;28;20088;-38
2023/01/26 00:31:17;;;;;;;19.30;11.80;;;6.10;99.90;;;;;;5071209;28;20451;-44
2023/01/26 00:33:43;;;;;;;20.23;11.18;;;6.00;99.90;;;;;;5071251;28;20023;-38
2023/01/26 00:36:09;;;;;;;19.60;11.05;;;6.00;99.90;;;;;;5071017;28;20025;-43
2023/01/26 00:38:35;;;;;;;22.25;11.98;;;5.90;99.90;;;;;;5071001;28;20071;-44
2023/01/26 00:41:00;;;;;;;19.48;10.80;;;5.90;99.90;;;;;;5072023;28;20055;-37
2023/01/26 00:43:26;;;;;;;18.45;10.90;;;5.80;99.90;;;;;;5071308;28;20024;-44
2023/01/26 00:45:51;;;;;;;21.40;11.40;;;5.80;99.90;;;;;;5070941;28;20356;-44
2023/01/26 00:48:17;;;;;;;18.73;10.70;;;5.70;99.90;;;;;;5070968;28;20547;-44
2023/01/26 00:50:43;;;;;;;18.55;10.30;;;5.70;99.90;;;;;;5070995;28;20032;-44
2023/01/26 00:53:09;;;;;;;20.23;11.02;;;5.70;99.90;;;;;;5070893;28;20025;-40
2023/01/26 00:55:35;;;;;;;18.58;11.23;;;5.70;99.90;;;;;;5070893;28;20078;-41
2023/01/26 00:58:03;;;;;;;18.95;11.05;;;5.70;99.90;;;;;;5070662;28;20032;-40
2023/01/26 01:00:29;;;;;;;16.88;10.25;;;5.60;99.90;;;;;;5070863;28;20108;-39
2023/01/26 01:02:56;;;;;;;18.92;10.60;;;5.60;99.90;;;;;;5070886;28;20055;-44
2023/01/26 01:05:26;;;;;;;18.17;11.32;;;5.70;99.90;;;;;;5071249;28;20100;-44
2023/01/26 01:07:52;;;;;;;17.35;10.50;;;5.90;99.90;;;;;;5071670;28;20032;-44
2023/01/26 01:10:18;;;;;;;17.70;10.02;;;6.10;99.90;;;;;;5074602;28;20052;-35
2023/01/26 01:12:44;;;;;;;16.88;10.20;;;6.30;99.90;;;;;;5074821;28;20091;-42
2023/01/26 01:15:10;;;;;;;18.10;10.15;;;6.40;99.90;;;;;;5074875;28;20031;-44
2023/01/26 01:17:36;;;;;;;18.17;9.93;;;6.40;99.90;;;;;;5074087;28;20467;-37
2023/01/26 01:20:06;;;;;;;18.33;10.38;;;6.40;99.90;;;;;;5074660;28;20021;-39
2023/01/26 01:22:33;;;;;;;17.38;9.90;;;6.40;99.90;;;;;;5075874;28;20070;-38
2023/01/26 01:24:58;;;;;;;20.70;10.60;;;6.30;99.90;;;;;;5075082;28;20028;-38
2023/01/26 01:27:24;;;;;;;18.25;10.20;;;6.20;99.90;;;;;;5074899;28;20143;-43
2023/01/26 01:29:50;;;;;;;15.80;9.85;;;6.10;99.90;;;;;;5074340;28;20075;-41
2023/01/26 01:32:17;;;;;;;20.77;10.27;;;6.10;99.90;;;;;;5074165;28;20035;-36
2023/01/26 01:34:42;;;;;;;19.08;10.57;;;6.00;99.90;;;;;;5074454;28;20035;-43
2023/01/26 01:37:08;;;;;;;19.10;10.73;;;6.00;99.90;;;;;;5074120;28;20021;-44
2023/01/26 01:39:33;;;;;;;16.88;10.15;;;5.90;99.90;;;;;;5074180;28;20104;-38
2023/01/26 01:41:59;;;;;;;16.15;9.55;;;5.80;99.90;;;;;;5074150;28;20028;-45
2023/01/26 01:44:25;;;;;;;18.65;10.43;;;5.80;99.90;;;;;;5074565;28;20031;-42
2023/01/26 01:47:02;;;;;;;17.90;10.10;;;5.80;99.90;;;;;;5073634;28;20028;-44
2023/01/26 01:49:41;;;;;;;16.88;10.43;;;5.70;99.90;;;;;;5073979;28;20394;-44
2023/01/26 01:52:14;;;;;;;17.90;9.73;;;5.70;99.90;;;;;;5074438;28;20029;-36
2023/01/26 01:54:49;;;;;;;17.33;9.95;;;5.70;99.90;;;;;;5074677;28;20448;-36
2023/01/26 01:57:26;;;;;;;19.75;10.50;;;5.70;99.90;;;;;;5073476;28;20470;-43
2023/01/26 01:59:58;;;;;;;18.05;9.93;;;5.60;99.90;;;;;;5073809;28;20031;-44
2023/01/26 02:02:24;;;;;;;15.68;9.00;;;5.60;99.90;;;;;;5074011;28;20031;-38
2023/01/26 02:04:50;;;;;;;17.13;9.90;;;5.70;99.90;;;;;;5073775;28;20025;-43
2023/01/26 02:07:16;;;;;;;15.57;9.52;;;5.80;99.90;;;;;;5073432;28;20032;-40
2023/01/26 02:12:31;;;;;;;16.00;9.93;;;6.30;99.90;;;;;;5074620;28;20044;-40
2023/01/26 02:14:57;;;;;;;16.52;9.48;;;6.50;99.90;;;;;;5073598;28;20025;-43
2023/01/26 02:17:23;;;;;;;14.43;8.30;;;6.50;99.90;;;;;;5073309;28;20474;-41
2023/01/26 02:19:57;;;;;;;17.85;9.68;;;6.50;99.90;;;;;;5072356;28;20032;-40
2023/01/26 02:22:31;;;;;;;14.82;8.88;;;6.50;99.90;;;;;;5073417;28;20024;-35
2023/01/26 02:25:03;;;;;;;16.85;9.27;;;6.40;99.90;;;;;;5073471;28;20032;-36
2023/01/26 02:27:29;;;;;;;13.35;8.55;;;6.30;99.90;;;;;;5073904;28;20029;-37
2023/01/26 02:29:57;;;;;;;15.07;9.50;;;6.20;99.90;;;;;;5073251;28;20035;-39
2023/01/26 02:32:22;;;;;;;16.58;8.90;;;6.10;99.90;;;;;;5073851;28;20029;-43
2023/01/26 02:34:55;;;;;;;15.50;9.00;;;6.00;99.90;;;;;;5073117;28;20027;-36
2023/01/26 02:37:20;;;;;;;14.55;9.05;;;6.00;99.90;;;;;;5072965;28;20099;-41
2023/01/26 02:40:01;;;;;;;17.08;8.95;;;5.90;99.90;;;;;;5073075;28;20099;-45
2023/01/26 02:42:40;;;;;;;15.45;9.38;;;5.90;99.90;;;;;;5073080;28;20063;-41
2023/01/26 02:45:09;;;;;;;16.00;9.23;;;5.80;99.90;;;;;;5072861;28;20032;-36
2023/01/26 02:47:34;;;;;;;13.77;8.10;;;5.80;99.90;;;;;;5072635;28;20090;-38
2023/01/26 02:50:00;;;;;;;14.68;8.50;;;5.80;99.90;;;;;;5073035;28;20029;-44
2023/01/26 02:52:29;;;;;;;15.85;9.27;;;5.70;99.90;;;;;;5072765;28;20028;-41
2023/01/26 02:57:40;;;;;;;16.02;8.93;;;5.70;99.90;;;;;;5072673;28;20043;-43
2023/01/26 03:00:23;;;;;;;16.35;9.40;;;5.60;99.90;;;;;;5073461;28;20074;-39
2023/01/26 03:02:52;;;;;;;15.02;8.50;;;5.60;99.90;;;;;;5073509;28;20066;-34
2023/01/26 03:05:17;;;;;;;13.02;8.55;;;5.70;99.90;;;;;;5072571;28;20451;-39
2023/01/26 03:07:43;;;;;;;14.27;8.68;;;5.90;99.90;;;;;;5072356;28;20096;-36
2023/01/26 03:10:10;;;;;;;15.82;8.32;;;6.10;99.90;;;;;;5072267;28;20036;-35
2023/01/26 03:12:36;;;;;;;12.88;8.27;;;6.30;99.90;;;;;;5072650;28;20051;-42
2023/01/26 03:17:46;;;;;;;13.18;8.57;;;6.50;99.90;;;;;;5073848;28;20082;-41
2023/01/26 03:28:25;;;;;;;14.43;8.95;;;6.30;99.90;;;;;;5071964;28;20044;-40
2023/01/26 03:30:56;;;;;;;14.32;7.88;;;6.20;99.90;;;;;;5072051;28;20036;-38
2023/01/26 03:33:23;;;;;;;13.68;8.45;;;6.10;99.90;;;;;;5072057;28;20036;-43
2023/01/26 03:35:52;;;;;;;15.00;8.68;;;6.00;99.90;;;;;;5072077;28;20025;-34
2023/01/26 03:38:18;;;;;;;14.35;8.65;;;5.90;99.90;;;;;;5072230;28;20078;-44
2023/01/26 03:57:08;;;;;;;13.18;8.13;;;5.70;99.90;;;;;;5072470;28;20094;-37
2023/01/26 03:59:36;;;;;;;11.23;7.35;;;5.60;99.90;;;;;;5071747;28;20032;-41
2023/01/26 04:10:22;;;;;;;11.75;7.38;;;6.10;99.90;;;;;;5071295;28;20448;-39
2023/01/26 04:23:47;;;;;;;13.00;7.63;;;6.50;99.90;;;;;;5071440;28;20504;-35
2023/01/26 04:26:13;;;;;;;10.85;7.18;;;6.40;99.90;;;;;;5071063;28;20028;-36
2023/01/26 04:28:38;;;;;;;11.50;7.25;;;6.30;99.90;;;;;;5071238;28;20027;-37
2023/01/26 04:31:04;;;;;;;11.70;7.07;;;6.20;99.90;;;;;;5071202;28;20036;-44
2023/01/26 04:33:30;;;;;;;11.77;7.00;;;6.10;99.90;;;;;;5071160;28;20024;-45
2023/01/26 04:35:56;;;;;;;10.98;7.00;;;6.00;99.90;;;;;;5070980;28;20024;-37
2023/01/26 04:38:22;;;;;;;11.15;6.80;;;6.00;99.90;;;;;;5071033;28;20031;-38
2023/01/26 04:40:54;;;;;;;13.07;6.97;;;5.90;99.90;;;;;;5071187;28;20036;-38
2023/01/26 04:43:19;;;;;;;11.30;6.97;;;5.90;99.90;;;;;;5072754;28;20036;-43
2023/01/26 04:45:59;;;;;;;10.43;6.93;;;5.80;99.90;;;;;;5075122;28;20032;-44
2023/01/26 04:48:26;;;;;;;11.05;7.35;;;5.80;99.90;;;;;;5075867;28;20028;-44
2023/01/26 04:50:53;;;;;;;11.68;7.60;;;5.70;99.90;;;;;;5075311;28;20029;-43
2023/01/26 04:53:19;;;;;;;11.85;7.03;;;5.70;99.90;;;;;;5075143;28;20021;-36
2023/01/26 04:55:44;;;;;;;13.23;7.30;;;5.70;99.90;;;;;;5074897;28;20032;-44
2023/01/26 04:58:10;;;;;;;11.30;6.70;;;5.70;99.90;;;;;;5074775;28;20033;-44
2023/01/26 05:00:36;;;;;;;11.60;7.15;;;5.60;99.90;;;;;;5075145;28;20063;-41
2023/01/26 05:03:01;;;;;;;12.27;7.30;;;5.60;99.90;;;;;;5075170;28;20111;-43
2023/01/26 05:05:27;;;;;;;10.88;6.90;;;5.70;99.90;;;;;;5075582;28;20351;-44
2023/01/26 05:07:52;;;;;;;11.40;7.00;;;5.90;99.90;;;;;;5074634;28;20025;-35
2023/01/26 05:10:18;;;;;;;10.65;6.82;;;6.10;99.90;;;;;;5074700;28;20475;-40
2023/01/26 05:12:44;;;;;;;10.10;6.88;;;6.30;99.90;;;;;;5074833;28;20033;-37
2023/01/26 05:15:10;;;;;;;9.50;6.25;;;6.50;99.90;;;;;;5074590;28;20024;-40
2023/01/26 05:17:35;;;;;;;10.65;6.63;;;6.60;99.90;;;;;;5074395;28;20475;-40
2023/01/26 05:20:02;;;;;;;11.43;6.88;;;6.50;99.90;;;;;;5074494;28;20056;-38
2023/01/26 05:22:27;;;;;;;12.88;7.45;;;6.50;99.90;;;;;;5075014;28;20047;-38
2023/01/26 05:24:53;;;;;;;9.38;6.03;;;6.40;99.90;;;;;;5074429;28;20025;-44
2023/01/26 05:27:22;;;;;;;11.95;6.93;;;6.30;99.90;;;;;;5074190;28;20445;-41
2023/01/26 05:29:51;;;;;;;11.32;6.80;;;6.20;99.90;;;;;;5074309;28;20394;-38
2023/01/26 05:32:17;;;;;;;11.07;6.15;;;6.20;99.90;;;;;;5074348;28;20024;-40
2023/01/26 05:34:42;;;;;;;10.27;6.53;;;6.10;99.90;;;;;;5074591;28;20092;-34
2023/01/26 05:37:08;;;;;;;10.18;5.70;;;6.00;99.90;;;;;;5074156;28;20059;-44
2023/01/26 05:39:33;;;;;;;10.35;6.30;;;5.90;99.90;;;;;;5074462;28;20047;-44
2023/01/26 05:41:59;;;;;;;10.98;6.45;;;5.90;99.90;;;;;;5074651;28;20037;-38
2023/01/26 05:44:25;;;;;;;10.93;6.35;;;5.80;99.90;;;;;;5074687;28;20031;-44
2023/01/26 05:46:51;;;;;;;11.63;6.95;;;5.80;99.90;;;;;;5073884;28;20074;-44
2023/01/26 05:49:16;;;;;;;9.63;5.88;;;5.80;99.90;;;;;;5073997;28;20047;-44
2023/01/26 05:51:42;;;;;;;10.10;6.72;;;5.70;99.90;;;;;;5074198;28;20035;-44
2023/01/26 05:54:08;;;;;;;10.80;6.20;;;5.70;99.90;;;;;;5074082;28;20039;-44
2023/01/26 05:56:33;;;;;;;10.45;7.05;;;5.60;99.90;;;;;;5073636;28;20345;-34
2023/01/26 05:58:59;;;;;;;9.55;6.15;;;5.60;99.90;;;;;;5073592;28;20091;-35
2023/01/26 06:01:24;;;;;;;10.48;6.63;;;5.60;99.90;;;;;;5073845;28;20028;-44
2023/01/26 06:03:52;;;;;;;10.77;6.93;;;5.60;99.90;;;;;;5073755;28;20493;-38
2023/01/26 06:06:18;;;;;;;10.10;6.75;;;5.70;99.90;;;;;;5073540;28;20017;-41
2023/01/26 06:08:44;;;;;;;8.65;5.75;;;6.00;99.90;;;;;;5073619;28;20401;-34
2023/01/26 06:11:09;;;;;;;11.07;6.75;;;6.20;99.90;;;;;;5073645;28;20028;-44
2023/01/26 06:13:35;;;;;;;11.18;6.68;;;6.40;99.90;;;;;;5073490;28;20371;-37
2023/01/26 06:16:01;;;;;;;11.25;6.80;;;6.50;99.90;;;;;;5073391;28;20056;-39
2023/01/26 06:18:26;;;;;;;8.05;5.72;;;6.50;99.90;;;;;;5074528;28;20051;-43
2023/01/26 06:20:52;;;;;;;11.32;6.90;;;6.50;99.90;;;;;;5074115;28;20481;-37
2023/01/26 06:23:18;;;;;;;12.13;6.88;;;6.40;99.90;;;;;;5073475;28;20024;-35
2023/01/26 06:25:43;;;;;;;12.85;7.32;;;6.30;99.90;;;;;;5073710;28;20032;-41
2023/01/26 06:28:11;;;;;;;11.05;7.00;;;6.30;99.90;;;;;;5073589;28;20482;-44
2023/01/26 06:30:37;;;;;;;10.95;6.35;;;6.20;99.90;;;;;;5055825;28;20069;-44
2023/01/26 06:33:02;;;;;;;9.18;6.13;;;6.10;99.90;;;;;;5073336;28;20045;-39
2023/01/26 06:35:28;;;;;;;12.57;6.68;;;6.00;99.90;;;;;;5073196;28;20517;-43
2023/01/26 06:37:54;;;;;;;11.63;7.25;;;6.00;99.90;;;;;;5073040;28;20024;-44
2023/01/26 06:40:19;;;;;;;10.43;7.03;;;5.90;99.90;;;;;;5073978;28;20077;-37
2023/01/26 06:42:49;;;;;;;11.13;6.93;;;5.80;99.90;;;;;;5073311;28;20467;-44
2023/01/26 06:45:15;;;;;;;10.55;7.22;;;5.80;99.90;;;;;;5073669;28;20483;-44
2023/01/26 06:47:48;;;;;;;10.93;6.97;;;5.70;99.90;;;;;;5072793;28;20028;-40
2023/01/26 06:50:15;;;;;;;11.13;7.30;;;5.70;99.90;;;;;;5072867;28;20016;-40
2023/01/26 06:52:44;;;;;;;12.55;6.85;;;5.70;99.90;;;;;;5072795;28;20032;-37
2023/01/26 06:55:36;;;;;;;11.60;7.25;;;5.60;99.90;;;;;;5072717;28;20024;-44
2023/01/26 06:58:02;;;;;;;10.13;6.53;;;5.60;99.90;;;;;;5071830;28;20517;-37
2023/01/26 07:00:27;;;;;;;11.80;7.22;;;5.60;99.90;;;;;;5072636;28;20029;-45
2023/01/26 07:02:53;;;;;;;11.77;7.03;;;5.60;99.90;;;;;;5072710;28;20095;-39
2023/01/26 07:05:19;;;;;;;11.48;7.53;;;5.60;99.90;;;;;;5072105;28;20497;-38
2023/01/26 07:07:45;;;;;;;11.40;7.05;;;5.80;99.90;;;;;;5072593;28;20035;-42
2023/01/26 07:10:12;;;;;;;12.18;7.65;;;6.00;99.90;;;;;;5072903;28;20099;-40
2023/01/26 07:12:42;;;;;;;9.95;6.88;;;6.20;99.90;;;;;;5073873;28;20064;-38
2023/01/26 07:15:09;;;;;;;10.55;6.80;;;6.50;99.90;;;;;;5072394;28;20044;-44
2023/01/26 07:17:36;;;;;;;11.32;6.82;;;6.50;99.90;;;;;;5072192;28;20050;-36
2023/01/26 07:20:02;;;;;;;11.68;7.38;;;6.50;99.90;;;;;;5072079;28;20020;-44
2023/01/26 07:22:28;;;;;;;10.40;6.50;;;6.40;99.90;;;;;;5072188;28;20449;-44
2023/01/26 07:24:53;;;;;;;10.05;6.47;;;6.30;99.90;;;;;;5072229;28;20152;-39
2023/01/26 07:27:19;;;;;;;10.68;6.47;;;6.30;99.90;;;;;;5072086;28;20052;-44
2023/01/26 07:29:45;;;;;;;11.77;6.78;;;6.20;99.90;;;;;;5072114;28;20036;-35
2023/01/26 07:32:11;;;;;;;10.32;6.38;;;6.10;99.90;;;;;;5072050;28;20024;-36
2023/01/26 07:34:36;;;;;;;9.50;6.22;;;6.00;99.90;;;;;;5072016;28;20095;-45
2023/01/26 07:37:04;;;;;;;10.85;7.05;;;6.00;99.90;;;;;;5072136;28;20063;-44
2023/01/26 07:39:30;;;;;;;13.07;7.63;;;5.90;99.90;;;;;;5071906;28;20120;-44
2023/01/26 07:41:55;;;;;;;10.55;6.82;;;5.80;99.90;;;;;;5072468;28;20249;-37
2023/01/26 07:44:21;;;;;;;9.52;6.55;;;5.80;99.90;;;;;;5071908;28;20028;-43
2023/01/26 07:46:47;;;;;;;11.68;6.95;;;5.80;99.90;;;;;;5071560;28;20033;-44
2023/01/26 07:49:12;;;;;;;11.40;7.03;;;5.70;99.90;;;;;;5071671;28;20032;-37
2023/01/26 07:51:38;;;;;;;12.13;7.47;;;5.70;99.90;;;;;;5071538;28;20028;-41
2023/01/26 07:54:05;;;;;;;11.38;7.00;;;5.60;99.90;;;;;;5072173;28;20029;-35
2023/01/26 07:56:30;;;;;;;10.82;7.35;;;5.60;99.90;;;;;;5071480;28;20016;-44
2023/01/26 07:58:56;;;;;;;11.38;6.95;;;5.60;99.90;;;;;;5071916;28;20043;-39
2023/01/26 08:01:23;;;;;;;12.07;7.28;;;5.60;99.90;;;;;;5071841;28;20031;-44
2023/01/26 08:03:50;;;;;;;12.07;7.40;;;5.60;99.90;;;;;;5072167;28;20025;-39
2023/01/26 08:06:17;;;;;;;11.65;6.90;;;5.50;99.90;;;;;;5072642;28;20431;-39
2023/01/26 08:08:43;;;;;;;12.27;7.28;;;5.50;99.90;;;;;;5071699;28;20458;-33
2023/01/26 08:11:10;;;;;;;10.57;6.57;;;5.50;99.90;;;;;;5071434;28;20108;-41
2023/01/26 08:13:36;;;;;;;11.38;7.30;;;5.50;99.90;;;;;;5071528;28;20455;-44
2023/01/26 08:16:13;;;;;;;12.43;7.72;;;5.50;99.90;;;;;;5071418;28;20069;-39
2023/01/26 08:18:41;;;;;;;10.63;7.10;;;5.50;99.90;;;;;;5071334;28;20024;-36
2023/01/26 08:21:08;;;;;;;11.95;7.35;;;5.50;99.90;;;;;;5071594;28;20053;-36
2023/01/26 08:23:34;;;;;;;11.45;6.72;;;5.50;99.90;;;;;;5071346;28;20406;-44
2023/01/26 08:26:10;;;;;;;11.40;7.15;;;5.50;99.90;;;;;;5071084;28;20024;-41
2023/01/26 08:28:36;;;;;;;12.77;7.32;;;5.40;99.90;;;;;;5071340;28;20024;-38
2023/01/26 08:31:10;;;;;;;12.52;7.00;;;5.40;99.90;;;;;;5071362;28;20043;-44
2023/01/26 08:33:35;;;;;;;11.33;6.97;;;5.40;99.90;;;;;;5072045;28;20070;-35
2023/01/26 08:36:06;;;;;;;12.82;7.43;;;5.40;99.90;;;;;;5071749;28;20017;-44
2023/01/26 08:38:33;;;;;;;11.40;6.78;;;5.40;99.90;;;;;;5071617;28;20036;-43
2023/01/26 08:40:59;;;;;;;11.40;6.95;;;5.40;99.90;;;;;;5071169;28;20029;-43
2023/01/26 08:43:26;;;;;;;10.65;6.55;;;5.40;99.90;;;;;;5071053;28;20025;-38
2023/01/26 08:45:51;;;;;;;11.40;7.32;;;5.40;99.90;;;;;;5070931;28;20039;-45
2023/01/26 08:48:17;;;;;;;10.60;7.35;;;5.40;99.90;;;;;;5071226;28;20029;-38
2023/01/26 08:50:43;;;;;;;11.40;7.10;;;5.40;99.90;;;;;;5071256;28;20032;-43
2023/01/26 08:53:09;;;;;;;11.23;6.63;;;5.40;99.90;;;;;;5071053;28;20495;-39
2023/01/26 08:55:34;;;;;;;9.80;7.13;;;5.40;99.90;;;;;;5070965;28;20041;-38
2023/01/26 08:58:00;;;;;;;11.52;7.03;;;5.40;99.90;;;;;;5071261;28;20039;-36
2023/01/26 09:00:26;;;;;;;12.13;7.28;;;5.40;99.90;;;;;;5071106;28;20032;-44
2023/01/26 09:02:59;;;;;;;10.95;6.97;;;5.40;99.90;;;;;;5071531;28;20044;-44
2023/01/26 09:05:25;;;;;;;10.98;7.18;;;5.40;99.90;;;;;;5070808;28;20032;-40
2023/01/26 09:07:51;;;;;;;10.05;6.97;;;5.40;99.90;;;;;;5070691;28;20059;-37
2023/01/26 09:10:17;;;;;;;10.85;6.95;;;5.40;99.90;;;;;;5071433;28;20059;-44
2023/01/26 09:12:42;;;;;;;11.30;7.05;;;5.40;99.90;;;;;;5070646;28;20035;-40
2023/01/26 09:15:08;;;;;;;10.75;7.07;;;5.40;99.90;;;;;;5071173;28;20029;-44
2023/01/26 09:17:34;;;;;;;11.90;7.03;;;5.40;99.90;;;;;;5070618;28;20059;-44
2023/01/26 09:20:00;;;;;;;10.70;6.47;;;5.40;99.90;;;;;;5070684;28;20025;-43
2023/01/26 09:22:25;;;;;;;11.98;7.18;;;5.40;99.90;;;;;;5070796;28;20031;-44
2023/01/26 09:24:51;;;;;;;10.32;7.18;;;5.40;99.90;;;;;;5071527;28;20110;-44
2023/01/26 09:27:17;;;;;;;9.13;6.55;;;5.40;99.90;;;;;;5070320;28;20032;-44
2023/01/26 09:29:42;;;;;;;12.35;6.57;;;5.40;99.90;;;;;;5072660;28;20027;-44
2023/01/26 09:32:08;;;;;;;11.02;6.93;;;5.40;99.90;;;;;;5074417;28;20029;-40
2023/01/26 09:34:33;;;;;;;10.52;6.63;;;5.40;99.90;;;;;;5074421;28;20510;-36
2023/01/26 09:36:59;;;;;;;11.48;6.75;;;5.40;99.90;;;;;;5074163;28;20028;-39
2023/01/26 09:39:24;;;;;;;11.82;6.97;;;5.40;99.90;;;;;;5074765;28;20469;-43
2023/01/26 09:42:06;;;;;;;12.20;6.85;;;5.40;99.90;;;;;;5075098;28;20031;-44
2023/01/26 09:44:42;;;;;;;10.80;6.35;;;5.40;99.90;;;;;;5074545;28;20482;-41
2023/01/26 09:47:27;;;;;;;9.45;6.35;;;5.40;99.90;;;;;;5073944;28;20032;-36
2023/01/26 09:50:01;;;;;;;10.65;6.32;;;5.40;99.90;;;;;;5074038;28;20060;-41
2023/01/26 09:52:29;;;;;;;11.82;6.70;;;5.40;99.90;;;;;;5073980;28;20112;-40
2023/01/26 09:54:59;;;;;;;11.52;6.35;;;5.40;99.90;;;;;;5073918;28;20028;-40
2023/01/26 09:57:28;;;;;;;9.77;6.45;;;5.40;99.90;;;;;;5073622;28;20123;-36
2023/01/26 10:00:19;;;;;;;10.52;7.15;;;5.40;99.90;;;;;;5073968;28;20074;-40
2023/01/26 10:03:07;;;;;;;8.75;5.82;;;5.40;99.90;;;;;;5073771;28;20093;-40
2023/01/26 10:05:44;;;;;;;10.77;6.72;;;5.40;99.90;;;;;;5073727;28;20028;-44
2023/01/26 10:08:17;;;;;;;10.05;5.60;;;5.30;99.90;;;;;;5073652;28;20416;-43
2023/01/26 10:10:48;;;;;;;10.35;6.32;;;5.40;99.90;;;;;;5073794;28;20307;-34
2023/01/26 10:13:16;;;;;;;11.13;6.55;;;5.30;99.90;;;;;;5074141;28;20028;-41
2023/01/26 10:15:46;;;;;;;10.00;6.72;;;5.30;99.90;;;;;;5073489;28;20023;-42
2023/01/26 10:18:18;;;;;;;10.25;6.10;;;5.40;99.90;;;;;;5074008;28;20466;-36
2023/01/26 10:20:51;;;;;;;11.45;6.75;;;5.40;99.90;;;;;;5073794;28;20036;-39
2023/01/26 10:23:25;;;;;;;11.30;6.90;;;5.30;99.90;;;;;;5073864;28;20020;-35
2023/01/26 10:25:55;;;;;;;9.45;5.90;;;5.30;99.90;;;;;;5074160;28;20474;-37
2023/01/26 10:28:29;;;;;;;10.25;6.60;;;5.30;99.90;;;;;;5073467;28;20025;-37
2023/01/26 10:30:55;;;;;;;;;;;5.30;99.90;;;;;;5073742;28;20046;-38
2023/01/26 10:33:35;;;;;;;10.90;6.18;;;5.40;99.90;;;;;;5073261;28;19983;-43
2023/01/26 10:36:04;;;;;;;9.18;6.40;;;5.40;99.90;;;;;;5072904;28;20019;-36
2023/01/26 10:38:33;;;;;;;11.82;6.90;;;5.30;99.90;;;;;;5073382;28;20345;-44
2023/01/26 10:41:00;;;;;;;10.95;6.43;;;5.40;99.90;;;;;;5072212;28;20048;-39
2023/01/26 10:43:27;;;;;;;12.05;6.75;;;5.30;99.90;;;;;;5073182;28;20135;-44
2023/01/26 10:45:52;;;;;;;10.20;6.05;;;5.40;99.90;;;;;;5072812;28;20020;-40
2023/01/26 10:48:24;;;;;;;11.43;6.50;;;5.30;99.90;;;;;;5072759;28;20034;-40
2023/01/26 10:50:50;;;;;;;11.90;6.82;;;5.40;99.90;;;;;;5072882;28;20497;-35
2023/01/26 10:53:27;;;;;;;9.82;6.07;;;5.40;99.90;;;;;;5073284;28;20158;-39
2023/01/26 10:56:12;;;;;;;9.95;6.57;;;5.40;99.90;;;;;;5072702;28;20028;-44
2023/01/26 10:58:48;;;;;;;10.15;6.43;;;5.30;99.90;;;;;;5071254;28;20039;-36
2023/01/26 11:01:17;;;;;;;12.45;6.35;;;5.30;99.90;;;;;;5073774;28;20055;-38
2023/01/26 11:04:06;;;;;;;10.45;6.68;;;5.30;99.90;;;;;;5072810;28;20383;-44
2023/01/26 11:06:32;;;;;;;10.25;6.38;;;5.30;99.90;;;;;;5072412;28;20031;-35
2023/01/26 11:09:25;;;;;;;12.10;6.80;;;5.30;99.90;;;;;;5072548;28;20513;-44
2023/01/26 11:12:03;;;;;;;10.85;6.95;;;5.30;99.90;;;;;;5072537;28;20024;-44
2023/01/26 11:14:31;;;;;;;12.40;7.50;;;5.30;99.90;;;;;;5072475;28;20028;-44
2023/01/26 11:17:20;;;;;;;11.85;7.15;;;5.30;99.90;;;;;;5072473;28;20386;-39
2023/01/26 11:19:58;;;;;;;11.13;6.53;;;5.30;99.90;;;;;;5072273;28;20032;-44
2023/01/26 11:22:37;;;;;;;12.75;6.82;;;5.30;99.90;;;;;;5072388;28;20403;-44
2023/01/26 11:25:20;;;;;;;11.10;6.50;;;5.30;99.90;;;;;;5072419;28;20131;-45
2023/01/26 11:28:03;;;;;;;9.63;6.50;;;5.30;99.90;;;;;;5072065;28;20028;-44
2023/01/26 11:30:29;;;;;;;14.20;7.90;;;5.30;99.90;;;;;;5072123;28;20048;-44
2023/01/26 11:33:11;;;;;;;12.98;7.40;;;5.30;99.90;;;;;;5072002;28;20170;-41
2023/01/26 11:35:54;;;;;;;12.82;7.40;;;5.30;99.90;;;;;;5072092;28;20017;-44
2023/01/26 11:38:53;;;;;;;10.75;6.82;;;5.30;99.90;;;;;;5071962;28;20478;-43
2023/01/26 11:41:30;;;;;;;12.27;6.68;;;5.30;99.90;;;;;;5072338;28;20029;-45
2023/01/26 11:44:17;;;;;;;13.02;7.38;;;5.30;99.90;;;;;;5072352;28;20024;-35
2023/01/26 11:46:50;;;;;;;12.63;6.75;;;5.30;99.90;;;;;;5071523;28;20032;-39
2023/01/26 11:49:29;;;;;;;11.73;6.88;;;5.30;99.90;;;;;;5071763;28;20425;-39
2023/01/26 11:52:04;;;;;;;11.23;6.57;;;5.30;99.90;;;;;;5071601;28;20032;-45
2023/01/26 11:55:07;;;;;;;10.63;6.47;;;5.30;99.90;;;;;;5071744;28;20020;-44
2023/01/26 11:57:50;;;;;;;12.85;7.32;;;5.30;99.90;;;;;;5071250;28;20390;-38
2023/01/26 12:00:30;;;;;;;10.57;6.45;;;5.30;99.90;;;;;;5071760;28;20363;-41
2023/01/26 12:03:02;;;;;;;13.00;7.53;;;5.30;99.90;;;;;;5071536;28;20024;-44
2023/01/26 12:05:42;;;;;;;12.30;7.00;;;5.30;99.90;;;;;;5071464;28;20062;-44
2023/01/26 12:08:19;;;;;;;12.68;7.32;;;5.30;99.90;;;;;;5071667;28;20020;-43
2023/01/26 12:10:58;;;;;;;12.48;7.05;;;5.30;99.90;;;;;;5071400;28;20419;-37
2023/01/26 12:13:37;;;;;;;9.95;6.43;;;5.30;99.90;;;;;;5071541;28;20012;-40
2023/01/26 12:16:22;;;;;;;11.98;7.43;;;5.30;99.90;;;;;;5071137;28;20096;-34
2023/01/26 12:19:13;;;;;;;11.25;7.15;;;5.30;99.90;;;;;;5070399;28;20043;-39
2023/01/26 12:21:43;;;;;;;11.50;6.95;;;5.30;99.90;;;;;;5072681;28;20427;-36
2023/01/26 12:24:19;;;;;;;11.68;6.63;;;5.30;99.90;;;;;;5072116;28;20025;-44
2023/01/26 12:26:48;;;;;;;14.38;7.55;;;5.30;99.90;;;;;;5071284;28;20479;-41
2023/01/26 12:29:24;;;;;;;11.80;6.80;;;5.30;99.90;;;;;;5071166;28;20051;-44
2023/01/26 12:32:12;;;;;;;20.27;9.90;;;5.30;99.90;;;;;;5071176;28;20029;-43
2023/01/26 12:34:38;;;;;;;18.42;10.32;;;5.10;99.90;;;;;;5071211;28;20021;-43
2023/01/26 12:37:25;;;;;;;19.80;10.57;;;4.90;99.90;;;;;;5070988;28;20052;-43
2023/01/26 12:40:30;;;;;;;19.98;9.98;;;4.80;99.90;;;;;;5071201;28;20021;-44
2023/01/26 12:43:15;;;;;;;20.50;10.32;;;4.80;99.90;;;;;;5071285;28;20414;-44
2023/01/26 12:45:46;;;;;;;17.63;10.13;;;4.80;99.90;;;;;;5071180;28;20705;-33
2023/01/26 12:48:44;;;;;;;18.98;10.35;;;4.80;99.90;;;;;;5071129;28;20032;-39
2023/01/26 12:51:18;;;;;;;21.27;10.05;;;4.80;99.90;;;;;;5071027;28;20451;-39
2023/01/26 12:53:56;;;;;;;19.95;10.40;;;4.80;99.90;;;;;;5071077;28;20023;-42
2023/01/26 12:56:41;;;;;;;17.58;9.88;;;4.90;99.90;;;;;;5070865;28;20483;-38
2023/01/26 12:59:13;;;;;;;;;;;4.90;99.90;;;;;;5071599;28;20036;-43
2023/01/26 13:01:40;;;;;;;17.08;9.52;;;4.90;99.90;;;;;;5070995;28;20282;-36
2023/01/26 13:04:13;;;;;;;19.45;10.57;;;5.00;99.90;;;;;;5072112;28;20028;-42
2023/01/26 13:06:38;;;;;;;17.67;8.95;;;5.00;99.90;;;;;;5075197;28;20021;-38
2023/01/26 13:09:21;;;;;;;17.58;10.20;;;5.00;99.90;;;;;;5074846;28;20078;-39
2023/01/26 13:11:54;;;;;;;19.48;10.05;;;5.00;99.90;;;;;;5074806;28;20056;-42
2023/01/26 13:14:27;;;;;;;17.02;9.30;;;5.10;99.90;;;;;;5074635;28;20024;-34
2023/01/26 13:16:52;;;;;;;16.02;9.02;;;5.00;99.90;;;;;;5074476;28;20078;-39
2023/01/26 13:19:52;;;;;;;16.25;9.55;;;5.10;99.90;;;;;;5074321;28;20029;-41
2023/01/26 13:22:17;;;;;;;18.38;9.75;;;5.10;99.90;;;;;;5074667;28;20371;-35
2023/01/26 13:25:11;;;;;;;16.40;8.90;;;5.10;99.90;;;;;;5074606;28;20044;-35
2023/01/26 13:27:37;;;;;;;13.63;8.30;;;5.10;99.90;;;;;;5074324;28;20100;-35
2023/01/26 13:30:23;;;;;;;17.38;9.05;;;5.10;99.90;;;;;;5074300;28;20107;-38
2023/01/26 13:32:48;;;;;;;16.33;8.63;;;5.10;99.90;;;;;;5074307;28;20028;-44
2023/01/26 13:35:21;;;;;;;16.02;9.30;;;5.10;99.90;;;;;;5074404;28;20024;-42
2023/01/26 13:37:58;;;;;;;15.82;8.88;;;5.10;99.90;;;;;;5074560;28;20025;-38
2023/01/26 13:40:41;;;;;;;14.18;8.50;;;5.10;99.90;;;;;;5074282;28;20029;-44
2023/01/26 13:43:25;;;;;;;14.43;8.95;;;5.10;99.90;;;;;;5074338;28;20020;-44
2023/01/26 13:45:53;;;;;;;12.90;7.93;;;5.10;99.90;;;;;;5074795;28;20029;-37
2023/01/26 13:48:43;;;;;;;15.02;8.68;;;5.10;99.90;;;;;;5074080;28;20287;-44
2023/01/26 13:51:18;;;;;;;16.30;8.88;;;5.10;99.90;;;;;;5074025;28;20055;-37
2023/01/26 13:53:57;;;;;;;14.05;8.57;;;5.10;99.90;;;;;;5074159;28;20398;-37